createdAt,value
2019-05-01T00:01:03.824Z,15.68
2019-05-01T00:02:09.848Z,15.66
2019-05-01T00:03:21.964Z,15.61
2019-05-01T00:04:33.644Z,15.58
2019-05-01T00:05:42.425Z,15.55
2019-05-01T00:06:50.944Z,15.50
2019-05-01T00:07:56.197Z,15.48
2019-05-01T00:09:00.445Z,15.48
2019-05-01T00:10:06.875Z,15.45
2019-05-01T00:11:11.349Z,15.43
2019-05-01T00:12:15.528Z,15.38
2019-05-01T00:13:19.828Z,15.39
2019-05-01T00:14:24.009Z,15.36
2019-05-01T00:15:32.337Z,15.36
2019-05-01T00:16:36.529Z,15.37
2019-05-01T00:17:40.973Z,15.33
2019-05-01T00:18:45.374Z,15.33
2019-05-01T00:19:49.622Z,15.33
2019-05-01T00:20:53.909Z,15.33
2019-05-01T00:21:58.129Z,15.32
2019-05-01T00:23:02.386Z,15.31
2019-05-01T00:24:06.618Z,15.32
2019-05-01T00:25:10.874Z,15.32
2019-05-01T00:26:15.197Z,15.33
2019-05-01T00:27:20.551Z,15.33
2019-05-01T00:28:24.910Z,15.33
2019-05-01T00:29:29.417Z,15.33
2019-05-01T00:30:35.314Z,15.31
2019-05-01T00:31:39.565Z,15.33
2019-05-01T00:32:43.939Z,15.30
2019-05-01T00:33:48.224Z,15.31
2019-05-01T00:34:52.658Z,15.30
2019-05-01T00:35:56.912Z,15.29
2019-05-01T00:37:01.181Z,15.31
2019-05-01T00:38:05.710Z,15.30
2019-05-01T00:39:11.560Z,15.29
2019-05-01T00:40:16.182Z,15.29
2019-05-01T00:41:20.433Z,15.26
2019-05-01T00:42:24.612Z,15.26
2019-05-01T00:43:29.226Z,15.24
2019-05-01T00:44:33.715Z,15.25
2019-05-01T00:45:37.969Z,15.26
2019-05-01T00:46:42.226Z,15.25
2019-05-01T00:47:46.483Z,15.25
2019-05-01T00:48:50.886Z,15.16
2019-05-01T00:49:56.176Z,15.21
2019-05-01T00:51:00.489Z,15.19
2019-05-01T00:52:04.765Z,15.16
2019-05-01T00:53:08.954Z,15.16
2019-05-01T00:54:13.248Z,15.17
2019-05-01T00:55:34.289Z,15.09
2019-05-01T00:56:48.700Z,15.07
2019-05-01T00:57:54.531Z,15.04
2019-05-01T00:59:00.412Z,15.03
2019-05-01T01:00:20.630Z,15.00
2019-05-01T01:01:32.202Z,14.99
2019-05-01T01:02:38.028Z,14.97
2019-05-01T01:03:42.212Z,14.93
2019-05-01T01:04:46.596Z,14.91
2019-05-01T01:05:50.988Z,14.91
2019-05-01T01:06:55.243Z,14.91
2019-05-01T01:07:59.632Z,14.91
2019-05-01T01:09:07.615Z,14.91
2019-05-01T01:10:13.465Z,14.92
2019-05-01T01:11:17.646Z,14.89
2019-05-01T01:12:21.921Z,14.91
2019-05-01T01:13:26.108Z,14.89
2019-05-01T01:14:30.498Z,14.87
2019-05-01T01:15:34.670Z,14.86
2019-05-01T01:16:38.969Z,14.85
2019-05-01T01:17:43.178Z,14.83
2019-05-01T01:18:47.548Z,14.84
2019-05-01T01:19:52.661Z,14.82
2019-05-01T01:20:56.846Z,14.82
2019-05-01T01:22:01.185Z,14.80
2019-05-01T01:23:05.385Z,14.79
2019-05-01T01:24:09.570Z,14.78
2019-05-01T01:25:13.825Z,14.77
2019-05-01T01:26:18.346Z,14.77
2019-05-01T01:27:23.350Z,14.78
2019-05-01T01:28:27.557Z,14.77
2019-05-01T01:29:31.822Z,14.76
2019-05-01T01:30:36.001Z,14.77
2019-05-01T01:31:40.249Z,14.79
2019-05-01T01:32:44.543Z,14.78
2019-05-01T01:33:49.694Z,14.78
2019-05-01T01:34:53.949Z,14.79
2019-05-01T01:35:58.175Z,14.79
2019-05-01T01:37:02.527Z,14.79
2019-05-01T01:38:07.598Z,14.80
2019-05-01T01:39:11.825Z,14.68
2019-05-01T01:40:16.213Z,14.76
2019-05-01T01:41:20.399Z,14.75
2019-05-01T01:42:24.716Z,14.74
2019-05-01T01:43:48.709Z,14.74
2019-05-01T01:44:57.230Z,14.73
2019-05-01T01:46:05.605Z,14.71
2019-05-01T01:47:09.952Z,14.71
2019-05-01T01:48:17.655Z,14.71
2019-05-01T01:49:21.901Z,14.68
2019-05-01T01:50:26.080Z,14.67
2019-05-01T01:51:30.348Z,14.65
2019-05-01T01:52:34.593Z,14.62
2019-05-01T01:53:39.117Z,14.62
2019-05-01T01:54:44.567Z,14.60
2019-05-01T01:55:48.772Z,14.57
2019-05-01T01:56:52.959Z,14.56
2019-05-01T01:57:57.281Z,14.56
2019-05-01T01:59:01.516Z,14.53
2019-05-01T02:00:08.499Z,14.51
2019-05-01T02:01:31.342Z,14.49
2019-05-01T02:02:38.389Z,14.48
2019-05-01T02:03:47.300Z,14.46
2019-05-01T02:04:55.892Z,14.46
2019-05-01T02:06:00.321Z,14.43
2019-05-01T02:07:05.381Z,14.41
2019-05-01T02:08:09.690Z,14.38
2019-05-01T02:09:13.927Z,14.38
2019-05-01T02:10:18.334Z,14.37
2019-05-01T02:11:22.669Z,14.37
2019-05-01T02:12:26.853Z,14.35
2019-05-01T02:13:31.262Z,14.34
2019-05-01T02:14:35.445Z,14.33
2019-05-01T02:15:39.726Z,14.31
2019-05-01T02:16:44.876Z,14.30
2019-05-01T02:17:49.049Z,14.28
2019-05-01T02:18:53.628Z,14.26
2019-05-01T02:19:57.874Z,14.26
2019-05-01T02:21:02.059Z,14.25
2019-05-01T02:22:06.774Z,14.23
2019-05-01T02:23:11.025Z,14.18
2019-05-01T02:24:15.207Z,14.15
2019-05-01T02:25:19.665Z,14.14
2019-05-01T02:26:25.627Z,14.10
2019-05-01T02:27:37.040Z,14.06
2019-05-01T02:28:42.873Z,14.03
2019-05-01T02:29:48.683Z,14.01
2019-05-01T02:31:27.185Z,14.02
2019-05-01T02:32:16.380Z,13.99
2019-05-01T02:33:20.687Z,13.98
2019-05-01T02:34:26.195Z,13.98
2019-05-01T02:35:30.611Z,13.96
2019-05-01T02:36:34.811Z,13.93
2019-05-01T02:37:39.069Z,13.90
2019-05-01T02:38:43.499Z,13.87
2019-05-01T02:39:47.745Z,13.82
2019-05-01T02:40:53.681Z,13.80
2019-05-01T02:41:59.346Z,13.80
2019-05-01T02:43:03.505Z,13.80
2019-05-01T02:44:16.694Z,13.80
2019-05-01T02:45:21.413Z,13.81
2019-05-01T02:46:25.848Z,13.80
2019-05-01T02:47:31.996Z,13.80
2019-05-01T02:48:36.393Z,13.81
2019-05-01T02:49:51.926Z,13.80
2019-05-01T02:50:56.964Z,13.81
2019-05-01T02:52:01.967Z,13.80
2019-05-01T02:53:06.144Z,13.79
2019-05-01T02:54:11.184Z,13.78
2019-05-01T02:55:26.022Z,13.77
2019-05-01T02:56:34.542Z,13.77
2019-05-01T02:57:38.728Z,13.76
2019-05-01T02:58:43.589Z,13.74
2019-05-01T02:59:50.089Z,13.73
2019-05-01T03:00:54.273Z,13.73
2019-05-01T03:01:58.805Z,13.72
2019-05-01T03:03:02.989Z,13.72
2019-05-01T03:04:07.206Z,13.70
2019-05-01T03:05:11.423Z,13.71
2019-05-01T03:06:16.821Z,13.71
2019-05-01T03:07:21.162Z,13.71
2019-05-01T03:08:25.578Z,13.72
2019-05-01T03:09:29.816Z,13.73
2019-05-01T03:10:34.468Z,13.73
2019-05-01T03:11:39.346Z,13.72
2019-05-01T03:12:44.151Z,13.74
2019-05-01T03:13:48.358Z,13.74
2019-05-01T03:14:52.552Z,13.73
2019-05-01T03:15:56.742Z,13.72
2019-05-01T03:17:02.194Z,13.70
2019-05-01T03:18:14.695Z,13.71
2019-05-01T03:19:35.619Z,13.68
2019-05-01T03:20:41.507Z,13.67
2019-05-01T03:21:50.820Z,13.65
2019-05-01T03:23:14.731Z,13.62
2019-05-01T03:24:24.476Z,13.56
2019-05-01T03:25:28.704Z,13.51
2019-05-01T03:26:32.893Z,13.50
2019-05-01T03:27:37.163Z,13.52
2019-05-01T03:28:41.365Z,13.53
2019-05-01T03:29:45.552Z,13.53
2019-05-01T03:30:49.840Z,13.54
2019-05-01T03:32:15.968Z,13.51
2019-05-01T03:33:00.029Z,13.54
2019-05-01T03:34:04.945Z,13.53
2019-05-01T03:35:09.101Z,13.53
2019-05-01T03:36:14.254Z,13.51
2019-05-01T03:37:18.435Z,13.51
2019-05-01T03:38:22.640Z,13.51
2019-05-01T03:39:27.241Z,13.51
2019-05-01T03:40:31.565Z,13.51
2019-05-01T03:41:35.755Z,13.49
2019-05-01T03:42:40.013Z,13.49
2019-05-01T03:43:44.267Z,13.49
2019-05-01T03:44:48.476Z,13.48
2019-05-01T03:45:53.032Z,13.50
2019-05-01T03:46:57.204Z,13.48
2019-05-01T03:48:01.392Z,13.48
2019-05-01T03:49:05.579Z,13.49
2019-05-01T03:50:09.762Z,13.49
2019-05-01T03:51:13.990Z,13.49
2019-05-01T03:52:18.160Z,13.47
2019-05-01T03:53:22.694Z,13.43
2019-05-01T03:54:27.053Z,13.35
2019-05-01T03:55:31.356Z,13.41
2019-05-01T03:56:35.573Z,13.41
2019-05-01T03:57:39.727Z,13.42
2019-05-01T03:58:43.972Z,13.39
2019-05-01T03:59:48.190Z,13.38
2019-05-01T04:01:09.053Z,13.38
2019-05-01T04:02:33.968Z,13.37
2019-05-01T04:03:37.180Z,13.32
2019-05-01T04:04:41.418Z,13.32
2019-05-01T04:05:45.737Z,13.34
2019-05-01T04:06:49.943Z,13.33
2019-05-01T04:07:54.123Z,13.34
2019-05-01T04:08:58.316Z,13.31
2019-05-01T04:10:02.563Z,13.31
2019-05-01T04:11:06.826Z,13.33
2019-05-01T04:12:11.034Z,13.35
2019-05-01T04:13:15.365Z,13.35
2019-05-01T04:14:19.800Z,13.35
2019-05-01T04:15:24.003Z,13.35
2019-05-01T04:16:28.291Z,13.36
2019-05-01T04:17:36.624Z,13.37
2019-05-01T04:18:40.850Z,13.38
2019-05-01T04:19:45.111Z,13.38
2019-05-01T04:20:50.000Z,13.38
2019-05-01T04:21:56.919Z,13.35
2019-05-01T04:23:02.338Z,13.35
2019-05-01T04:24:06.575Z,13.30
2019-05-01T04:25:10.748Z,13.31
2019-05-01T04:26:14.937Z,13.28
2019-05-01T04:27:20.753Z,13.28
2019-05-01T04:28:26.661Z,13.24
2019-05-01T04:29:33.532Z,13.25
2019-05-01T04:30:57.570Z,13.25
2019-05-01T04:32:20.286Z,13.25
2019-05-01T04:33:24.540Z,13.27
2019-05-01T04:34:45.364Z,13.27
2019-05-01T04:36:07.594Z,13.27
2019-05-01T04:37:13.436Z,13.26
2019-05-01T04:38:18.970Z,13.22
2019-05-01T04:39:23.510Z,13.23
2019-05-01T04:40:27.731Z,13.23
2019-05-01T04:41:31.932Z,13.23
2019-05-01T04:42:36.195Z,13.25
2019-05-01T04:43:40.363Z,13.25
2019-05-01T04:44:44.693Z,13.29
2019-05-01T04:45:50.340Z,13.30
2019-05-01T04:46:54.527Z,13.29
2019-05-01T04:47:58.892Z,13.31
2019-05-01T04:49:03.073Z,13.33
2019-05-01T04:50:07.280Z,13.35
2019-05-01T04:51:11.493Z,13.32
2019-05-01T04:52:15.823Z,13.33
2019-05-01T04:53:20.018Z,13.33
2019-05-01T04:54:24.201Z,13.33
2019-05-01T04:55:28.403Z,13.32
2019-05-01T04:56:32.615Z,13.34
2019-05-01T04:57:36.945Z,13.36
2019-05-01T04:58:41.130Z,13.37
2019-05-01T04:59:45.392Z,13.37
2019-05-01T05:00:49.621Z,13.39
2019-05-01T05:02:01.561Z,13.39
2019-05-01T05:03:10.375Z,13.42
2019-05-01T05:04:14.993Z,13.41
2019-05-01T05:05:19.295Z,13.42
2019-05-01T05:06:23.601Z,13.45
2019-05-01T05:07:27.807Z,13.48
2019-05-01T05:08:31.996Z,13.40
2019-05-01T05:09:43.181Z,13.43
2019-05-01T05:10:48.542Z,13.43
2019-05-01T05:12:00.416Z,13.45
2019-05-01T05:13:15.907Z,13.47
2019-05-01T05:14:24.675Z,13.47
2019-05-01T05:15:33.174Z,13.46
2019-05-01T05:16:48.280Z,13.48
2019-05-01T05:17:52.581Z,13.49
2019-05-01T05:18:56.799Z,13.50
2019-05-01T05:20:01.190Z,13.52
2019-05-01T05:21:05.438Z,13.53
2019-05-01T05:22:09.604Z,13.56
2019-05-01T05:23:14.760Z,13.58
2019-05-01T05:24:18.979Z,13.60
2019-05-01T05:25:23.158Z,13.59
2019-05-01T05:26:27.341Z,13.64
2019-05-01T05:27:31.593Z,13.66
2019-05-01T05:28:35.950Z,13.65
2019-05-01T05:29:40.231Z,13.68
2019-05-01T05:30:44.953Z,13.72
2019-05-01T05:31:49.301Z,13.73
2019-05-01T05:32:53.693Z,13.76
2019-05-01T05:33:58.136Z,13.78
2019-05-01T05:35:02.392Z,13.80
2019-05-01T05:36:07.032Z,13.83
2019-05-01T05:37:12.853Z,13.83
2019-05-01T05:38:33.648Z,13.91
2019-05-01T05:39:39.502Z,13.94
2019-05-01T05:40:43.778Z,13.97
2019-05-01T05:41:48.105Z,13.99
2019-05-01T05:42:52.322Z,14.03
2019-05-01T05:43:56.805Z,14.04
2019-05-01T05:45:01.213Z,14.09
2019-05-01T05:46:05.476Z,14.12
2019-05-01T05:47:09.732Z,14.16
2019-05-01T05:48:13.930Z,13.84
2019-05-01T05:49:18.140Z,14.20
2019-05-01T05:50:23.964Z,14.22
2019-05-01T05:51:44.865Z,14.24
2019-05-01T05:53:04.471Z,14.28
2019-05-01T05:54:16.179Z,14.29
2019-05-01T05:55:31.174Z,14.31
2019-05-01T05:56:37.204Z,14.31
2019-05-01T05:57:58.238Z,14.31
2019-05-01T05:59:07.626Z,14.29
2019-05-01T06:00:13.501Z,14.32
2019-05-01T06:01:28.526Z,14.35
2019-05-01T06:02:34.393Z,14.40
2019-05-01T06:03:55.467Z,14.44
2019-05-01T06:05:06.100Z,14.49
2019-05-01T06:06:17.698Z,14.54
2019-05-01T06:07:26.485Z,14.55
2019-05-01T06:08:30.788Z,14.58
2019-05-01T06:09:36.705Z,14.63
2019-05-01T06:10:45.536Z,14.68
2019-05-01T06:11:59.952Z,14.69
2019-05-01T06:13:23.098Z,14.76
2019-05-01T06:14:42.249Z,14.73
2019-05-01T06:16:04.151Z,14.86
2019-05-01T06:17:28.900Z,14.91
2019-05-01T06:18:39.281Z,14.96
2019-05-01T06:19:49.300Z,15.03
2019-05-01T06:20:57.207Z,15.08
2019-05-01T06:22:21.463Z,15.13
2019-05-01T06:23:37.229Z,15.18
2019-05-01T06:24:43.059Z,15.23
2019-05-01T06:25:48.894Z,15.26
2019-05-01T06:26:53.122Z,15.32
2019-05-01T06:27:57.425Z,15.38
2019-05-01T06:29:02.445Z,15.42
2019-05-01T06:30:10.994Z,15.46
2019-05-01T06:31:23.115Z,15.49
2019-05-01T06:32:23.889Z,15.53
2019-05-01T06:33:28.033Z,15.55
2019-05-01T06:34:32.251Z,15.60
2019-05-01T06:35:38.078Z,15.65
2019-05-01T06:36:44.311Z,15.69
2019-05-01T06:38:02.183Z,15.72
2019-05-01T06:39:11.879Z,15.75
2019-05-01T06:40:18.778Z,15.78
2019-05-01T06:41:21.352Z,15.82
2019-05-01T06:42:25.472Z,15.85
2019-05-01T06:43:31.545Z,15.87
2019-05-01T06:44:45.821Z,15.92
2019-05-01T06:46:07.912Z,15.96
2019-05-01T06:47:13.757Z,15.98
2019-05-01T06:48:19.594Z,16.01
2019-05-01T06:49:31.297Z,16.04
2019-05-01T06:50:41.428Z,16.08
2019-05-01T06:51:48.074Z,16.12
2019-05-01T06:52:52.640Z,16.15
2019-05-01T06:53:56.685Z,16.17
2019-05-01T06:55:00.901Z,16.20
2019-05-01T06:56:05.080Z,16.23
2019-05-01T06:57:09.269Z,16.30
2019-05-01T06:58:14.779Z,16.33
2019-05-01T06:59:19.473Z,16.37
2019-05-01T07:00:23.697Z,16.39
2019-05-01T07:01:27.948Z,16.43
2019-05-01T07:02:35.126Z,16.45
2019-05-01T07:03:40.823Z,16.41
2019-05-01T07:04:44.190Z,16.51
2019-05-01T07:05:49.158Z,16.55
2019-05-01T07:06:54.462Z,16.60
2019-05-01T07:07:58.708Z,16.63
2019-05-01T07:09:06.958Z,16.66
2019-05-01T07:10:10.412Z,16.69
2019-05-01T07:11:15.603Z,16.71
2019-05-01T07:12:24.009Z,16.76
2019-05-01T07:13:28.033Z,16.80
2019-05-01T07:14:41.037Z,16.83
2019-05-01T07:18:37.427Z,16.91
2019-05-01T07:19:57.520Z,16.95
2019-05-01T07:21:02.344Z,16.96
2019-05-01T07:22:07.479Z,16.99
2019-05-01T07:23:17.497Z,17.03
2019-05-01T07:24:19.027Z,17.08
2019-05-01T07:25:23.210Z,17.13
2019-05-01T07:26:27.399Z,17.19
2019-05-01T07:27:31.633Z,17.24
2019-05-01T07:28:37.000Z,17.30
2019-05-01T07:29:44.875Z,17.38
2019-05-01T07:30:56.292Z,17.42
2019-05-01T07:32:01.700Z,17.48
2019-05-01T07:33:06.578Z,17.53
2019-05-01T07:34:16.785Z,17.58
2019-05-01T07:35:17.004Z,17.62
2019-05-01T07:36:21.317Z,17.66
2019-05-01T07:37:27.593Z,17.71
2019-05-01T07:38:32.882Z,17.75
2019-05-01T07:39:37.374Z,17.80
2019-05-01T07:40:41.555Z,17.85
2019-05-01T07:41:45.840Z,17.87
2019-05-01T07:42:54.569Z,17.94
2019-05-01T07:44:18.988Z,17.98
2019-05-01T07:45:26.591Z,18.03
2019-05-01T07:46:35.097Z,18.07
2019-05-01T07:47:40.951Z,18.11
2019-05-01T07:48:45.228Z,18.16
2019-05-01T07:49:54.987Z,18.17
2019-05-01T07:51:01.848Z,18.22
2019-05-01T07:52:05.118Z,18.25
2019-05-01T07:53:09.326Z,18.30
2019-05-01T07:54:13.623Z,18.35
2019-05-01T07:55:20.079Z,18.39
2019-05-01T07:56:28.012Z,18.43
2019-05-01T07:57:34.239Z,18.41
2019-05-01T07:58:38.350Z,18.45
2019-05-01T07:59:42.536Z,18.49
2019-05-01T08:00:54.165Z,18.54
2019-05-01T08:02:00.002Z,18.58
2019-05-01T08:03:07.162Z,18.63
2019-05-01T08:04:13.820Z,18.63
2019-05-01T08:05:16.354Z,18.72
2019-05-01T08:06:21.859Z,18.68
2019-05-01T08:07:27.735Z,18.76
2019-05-01T08:08:32.334Z,18.81
2019-05-01T08:09:36.533Z,18.86
2019-05-01T08:10:41.081Z,18.91
2019-05-01T08:11:46.022Z,18.94
2019-05-01T08:12:50.237Z,18.97
2019-05-01T08:14:06.599Z,19.03
2019-05-01T08:15:00.297Z,19.06
2019-05-01T08:16:07.242Z,19.09
2019-05-01T08:17:12.748Z,19.14
2019-05-01T08:18:30.982Z,19.23
2019-05-01T08:19:40.723Z,19.27
2019-05-01T08:20:58.660Z,19.32
2019-05-01T08:22:13.892Z,19.33
2019-05-01T08:23:18.105Z,19.40
2019-05-01T08:24:24.430Z,19.44
2019-05-01T08:25:33.106Z,19.49
2019-05-01T08:26:34.739Z,19.52
2019-05-01T08:27:46.428Z,19.59
2019-05-01T08:28:54.951Z,19.63
2019-05-01T08:30:18.598Z,19.65
2019-05-01T08:31:29.003Z,19.73
2019-05-01T08:32:42.171Z,19.78
2019-05-01T08:33:54.007Z,19.80
2019-05-01T08:35:02.160Z,19.81
2019-05-01T08:36:06.785Z,19.87
2019-05-01T08:37:12.246Z,19.92
2019-05-01T08:38:16.435Z,19.97
2019-05-01T08:39:20.640Z,19.99
2019-05-01T08:40:24.892Z,20.03
2019-05-01T08:41:31.835Z,20.10
2019-05-01T08:42:37.747Z,20.14
2019-05-01T08:43:41.145Z,20.18
2019-05-01T08:45:05.115Z,20.20
2019-05-01T08:46:16.531Z,20.24
2019-05-01T08:47:25.790Z,20.24
2019-05-01T08:48:46.686Z,20.29
2019-05-01T08:49:52.597Z,20.37
2019-05-01T08:50:59.220Z,20.44
2019-05-01T08:52:11.225Z,20.49
2019-05-01T08:53:10.965Z,20.53
2019-05-01T08:54:15.222Z,20.58
2019-05-01T08:55:19.417Z,20.64
2019-05-01T08:56:23.946Z,20.68
2019-05-01T08:57:29.209Z,20.70
2019-05-01T08:58:34.163Z,20.74
2019-05-01T08:59:38.482Z,20.77
2019-05-01T09:00:43.269Z,20.83
2019-05-01T09:01:50.633Z,20.88
2019-05-01T09:02:54.017Z,20.92
2019-05-01T09:03:58.366Z,20.96
2019-05-01T09:05:06.834Z,21.04
2019-05-01T09:06:09.189Z,21.08
2019-05-01T09:07:14.745Z,21.14
2019-05-01T09:08:19.858Z,21.20
2019-05-01T09:09:25.077Z,21.25
2019-05-01T09:10:29.343Z,21.30
2019-05-01T09:11:36.271Z,21.34
2019-05-01T09:12:42.583Z,21.36
2019-05-01T09:13:45.944Z,21.42
2019-05-01T09:14:51.274Z,21.45
2019-05-01T09:15:55.998Z,21.48
2019-05-01T09:17:00.683Z,21.48
2019-05-01T09:18:05.038Z,21.52
2019-05-01T09:19:09.462Z,21.52
2019-05-01T09:20:16.591Z,21.51
2019-05-01T09:21:20.214Z,21.54
2019-05-01T09:22:24.520Z,21.56
2019-05-01T09:23:28.774Z,21.59
2019-05-01T09:24:33.164Z,21.66
2019-05-01T09:25:55.129Z,21.70
2019-05-01T09:27:18.671Z,21.70
2019-05-01T09:28:35.957Z,21.74
2019-05-01T09:29:46.916Z,21.80
2019-05-01T09:31:01.283Z,21.88
2019-05-01T09:32:00.419Z,21.94
2019-05-01T09:33:04.988Z,21.97
2019-05-01T09:34:09.614Z,22.01
2019-05-01T09:35:15.797Z,22.07
2019-05-01T09:36:19.824Z,22.15
2019-05-01T09:37:24.107Z,22.23
2019-05-01T09:38:28.531Z,22.29
2019-05-01T09:39:32.831Z,22.36
2019-05-01T09:40:37.104Z,22.42
2019-05-01T09:41:43.111Z,22.47
2019-05-01T09:42:47.652Z,22.52
2019-05-01T09:43:52.953Z,22.57
2019-05-01T09:44:57.393Z,22.64
2019-05-01T09:46:01.835Z,22.68
2019-05-01T09:47:07.499Z,22.74
2019-05-01T09:48:11.847Z,22.79
2019-05-01T09:49:18.223Z,22.81
2019-05-01T09:50:25.949Z,22.86
2019-05-01T09:51:47.542Z,22.88
2019-05-01T09:52:55.271Z,22.87
2019-05-01T09:54:09.894Z,22.93
2019-05-01T09:55:23.038Z,22.97
2019-05-01T09:56:26.468Z,23.02
2019-05-01T09:57:31.093Z,23.07
2019-05-01T09:58:35.295Z,23.13
2019-05-01T09:59:39.549Z,23.17
2019-05-01T10:00:48.763Z,23.22
2019-05-01T10:01:50.791Z,23.26
2019-05-01T10:02:55.042Z,23.33
2019-05-01T10:03:59.377Z,23.36
2019-05-01T10:05:06.753Z,23.40
2019-05-01T10:06:12.821Z,23.45
2019-05-01T10:07:17.472Z,23.44
2019-05-01T10:08:21.950Z,23.20
2019-05-01T10:09:26.936Z,23.22
2019-05-01T10:10:31.273Z,23.22
2019-05-01T10:11:40.687Z,23.25
2019-05-01T10:12:46.868Z,23.29
2019-05-01T10:13:49.373Z,23.33
2019-05-01T10:14:53.756Z,23.31
2019-05-01T10:15:58.266Z,23.20
2019-05-01T10:17:02.563Z,23.22
2019-05-01T10:18:07.030Z,23.27
2019-05-01T10:19:11.354Z,23.33
2019-05-01T10:20:15.822Z,23.40
2019-05-01T10:21:22.406Z,23.49
2019-05-01T10:22:26.302Z,23.53
2019-05-01T10:23:30.725Z,23.58
2019-05-01T10:24:37.757Z,23.67
2019-05-01T10:25:47.426Z,23.73
2019-05-01T10:26:50.328Z,23.81
2019-05-01T10:28:01.841Z,23.84
2019-05-01T10:29:10.582Z,23.85
2019-05-01T10:30:36.282Z,23.89
2019-05-01T10:31:59.346Z,23.93
2019-05-01T10:33:17.778Z,23.99
2019-05-01T10:34:38.612Z,24.01
2019-05-01T10:36:00.078Z,24.01
2019-05-01T10:37:04.844Z,24.02
2019-05-01T10:38:10.749Z,24.04
2019-05-01T10:39:16.098Z,24.05
2019-05-01T10:40:22.431Z,24.05
2019-05-01T10:41:26.830Z,24.11
2019-05-01T10:42:31.259Z,24.11
2019-05-01T10:43:35.541Z,24.14
2019-05-01T10:44:40.042Z,24.18
2019-05-01T10:45:45.930Z,24.23
2019-05-01T10:46:50.253Z,24.28
2019-05-01T10:47:54.617Z,24.32
2019-05-01T10:48:59.003Z,24.32
2019-05-01T10:50:03.820Z,24.36
2019-05-01T10:51:08.201Z,24.43
2019-05-01T10:52:14.345Z,24.48
2019-05-01T10:53:18.667Z,24.57
2019-05-01T10:54:23.827Z,24.65
2019-05-01T10:55:28.494Z,24.70
2019-05-01T10:56:32.861Z,24.78
2019-05-01T10:57:40.240Z,24.84
2019-05-01T10:58:43.218Z,24.84
2019-05-01T10:59:47.636Z,24.85
2019-05-01T11:00:53.498Z,24.85
2019-05-01T11:01:59.322Z,24.87
2019-05-01T11:03:03.504Z,24.85
2019-05-01T11:04:07.767Z,24.89
2019-05-01T11:05:11.948Z,24.80
2019-05-01T11:06:16.299Z,24.71
2019-05-01T11:07:20.505Z,24.68
2019-05-01T11:08:24.857Z,24.68
2019-05-01T11:09:29.197Z,24.73
2019-05-01T11:10:33.408Z,24.78
2019-05-01T11:11:37.648Z,24.83
2019-05-01T11:12:41.779Z,24.87
2019-05-01T11:13:45.972Z,24.89
2019-05-01T11:14:50.498Z,24.97
2019-05-01T11:15:55.935Z,25.04
2019-05-01T11:17:00.191Z,25.12
2019-05-01T11:18:05.064Z,25.12
2019-05-01T11:19:09.468Z,25.11
2019-05-01T11:20:13.747Z,25.16
2019-05-01T11:21:17.972Z,25.22
2019-05-01T11:22:22.258Z,25.29
2019-05-01T11:23:26.617Z,25.32
2019-05-01T11:24:30.805Z,25.40
2019-05-01T11:25:36.340Z,25.43
2019-05-01T11:26:40.700Z,25.38
2019-05-01T11:27:45.082Z,25.42
2019-05-01T11:28:49.329Z,25.48
2019-05-01T11:29:53.510Z,25.53
2019-05-01T11:30:57.842Z,25.55
2019-05-01T11:32:19.964Z,25.48
2019-05-01T11:33:34.303Z,25.39
2019-05-01T11:34:45.864Z,25.36
2019-05-01T11:35:54.241Z,25.27
2019-05-01T11:37:08.780Z,25.29
2019-05-01T11:38:20.727Z,25.26
2019-05-01T11:39:40.275Z,25.28
2019-05-01T11:40:45.297Z,25.28
2019-05-01T11:41:56.922Z,25.23
2019-05-01T11:43:02.800Z,25.26
2019-05-01T11:49:02.648Z,24.91
2019-05-01T11:50:07.044Z,24.85
2019-05-01T11:51:11.222Z,24.83
2019-05-01T11:52:15.604Z,24.85
2019-05-01T11:53:19.806Z,24.90
2019-05-01T11:54:23.997Z,24.90
2019-05-01T11:55:28.227Z,24.93
2019-05-01T11:56:32.415Z,24.97
2019-05-01T11:57:36.808Z,24.98
2019-05-01T11:58:40.988Z,25.00
2019-05-01T11:59:45.188Z,25.07
2019-05-01T12:00:50.465Z,25.12
2019-05-01T12:01:54.715Z,25.21
2019-05-01T12:02:58.954Z,25.27
2019-05-01T12:04:03.256Z,25.34
2019-05-01T12:05:07.508Z,25.40
2019-05-01T12:06:22.326Z,25.49
2019-05-01T12:07:17.760Z,25.50
2019-05-01T12:08:22.090Z,25.60
2019-05-01T12:09:26.271Z,25.65
2019-05-01T12:10:30.674Z,25.73
2019-05-01T12:11:35.925Z,25.77
2019-05-01T12:12:40.202Z,25.73
2019-05-01T12:13:44.508Z,25.71
2019-05-01T12:14:48.806Z,25.75
2019-05-01T12:15:54.622Z,25.78
2019-05-01T12:17:00.473Z,25.82
2019-05-01T12:18:04.763Z,25.79
2019-05-01T12:19:09.016Z,25.80
2019-05-01T12:20:13.773Z,25.84
2019-05-01T12:21:17.947Z,25.84
2019-05-01T12:22:22.161Z,25.82
2019-05-01T12:23:26.364Z,25.78
2019-05-01T12:24:30.766Z,25.77
2019-05-01T12:25:35.242Z,25.42
2019-05-01T12:26:39.420Z,25.40
2019-05-01T12:27:43.947Z,25.32
2019-05-01T12:28:48.131Z,25.26
2019-05-01T12:29:52.479Z,25.29
2019-05-01T12:30:56.648Z,25.35
2019-05-01T12:32:00.928Z,25.39
2019-05-01T12:33:05.097Z,25.30
2019-05-01T12:34:09.278Z,25.21
2019-05-01T12:35:13.624Z,25.18
2019-05-01T12:36:18.040Z,25.20
2019-05-01T12:37:23.851Z,25.19
2019-05-01T12:38:28.386Z,25.05
2019-05-01T12:39:32.636Z,24.90
2019-05-01T12:40:37.127Z,24.69
2019-05-01T12:41:45.703Z,24.62
2019-05-01T12:42:49.890Z,24.56
2019-05-01T12:43:54.213Z,24.61
2019-05-01T12:44:59.651Z,24.63
2019-05-01T12:46:04.642Z,24.66
2019-05-01T12:47:19.383Z,24.65
2019-05-01T12:48:23.829Z,24.67
2019-05-01T12:49:28.080Z,24.70
2019-05-01T12:50:32.312Z,24.67
2019-05-01T12:51:37.352Z,24.66
2019-05-01T12:52:47.464Z,24.69
2019-05-01T12:53:53.295Z,24.76
2019-05-01T12:55:15.004Z,24.79
2019-05-01T12:56:20.864Z,24.81
2019-05-01T12:57:25.054Z,24.86
2019-05-01T12:58:29.397Z,24.90
2019-05-01T12:59:33.540Z,24.97
2019-05-01T13:00:45.189Z,24.97
2019-05-01T13:01:49.360Z,24.84
2019-05-01T13:02:53.662Z,24.82
2019-05-01T13:03:57.944Z,24.85
2019-05-01T13:05:02.135Z,24.76
2019-05-01T13:06:06.329Z,24.53
2019-05-01T13:07:10.517Z,24.47
2019-05-01T13:08:14.732Z,24.46
2019-05-01T13:09:18.919Z,24.32
2019-05-01T13:10:23.089Z,24.29
2019-05-01T13:11:27.385Z,24.30
2019-05-01T13:12:31.552Z,24.30
2019-05-01T13:13:35.863Z,24.31
2019-05-01T13:14:40.026Z,24.26
2019-05-01T13:15:44.201Z,24.21
2019-05-01T13:16:48.382Z,24.24
2019-05-01T13:17:52.638Z,24.27
2019-05-01T13:18:56.841Z,24.28
2019-05-01T13:20:01.095Z,24.13
2019-05-01T13:21:05.280Z,24.24
2019-05-01T13:22:09.460Z,24.33
2019-05-01T13:23:13.766Z,24.38
2019-05-01T13:24:18.135Z,24.42
2019-05-01T13:25:22.330Z,24.42
2019-05-01T13:26:36.949Z,24.46
2019-05-01T13:27:42.773Z,24.52
2019-05-01T13:28:57.397Z,24.62
2019-05-01T13:30:08.908Z,24.62
2019-05-01T13:31:14.814Z,24.67
2019-05-01T13:32:20.649Z,24.74
2019-05-01T13:33:25.010Z,24.78
2019-05-01T13:34:29.194Z,24.85
2019-05-01T13:35:33.465Z,24.90
2019-05-01T13:36:37.937Z,24.96
2019-05-01T13:37:42.109Z,25.00
2019-05-01T13:38:46.427Z,25.04
2019-05-01T13:39:51.678Z,25.11
2019-05-01T13:40:55.872Z,25.18
2019-05-01T13:42:00.204Z,25.18
2019-05-01T13:43:04.388Z,25.22
2019-05-01T13:46:40.200Z,25.26
2019-05-01T13:47:44.485Z,25.25
2019-05-01T13:48:48.651Z,25.21
2019-05-01T13:49:52.904Z,25.12
2019-05-01T13:50:58.149Z,25.11
2019-05-01T13:52:02.347Z,25.03
2019-05-01T13:53:06.647Z,25.03
2019-05-01T13:54:11.317Z,25.02
2019-05-01T13:55:15.571Z,25.02
2019-05-01T13:56:19.885Z,25.04
2019-05-01T13:57:24.201Z,25.04
2019-05-01T13:58:29.502Z,25.07
2019-05-01T13:59:33.677Z,25.06
2019-05-01T14:00:38.047Z,25.10
2019-05-01T14:01:42.225Z,25.16
2019-05-01T14:02:46.474Z,25.21
2019-05-01T14:03:50.651Z,25.28
2019-05-01T14:04:54.934Z,25.29
2019-05-01T14:05:59.234Z,25.35
2019-05-01T14:07:15.903Z,25.38
2019-05-01T14:08:10.198Z,25.40
2019-05-01T14:09:19.233Z,25.43
2019-05-01T14:10:24.116Z,25.46
2019-05-01T14:11:28.320Z,25.48
2019-05-01T14:12:32.490Z,25.52
2019-05-01T14:13:36.721Z,25.55
2019-05-01T14:14:40.958Z,25.56
2019-05-01T14:15:45.354Z,25.56
2019-05-01T14:16:49.629Z,25.51
2019-05-01T14:17:53.828Z,25.43
2019-05-01T14:18:58.041Z,25.34
2019-05-01T14:20:03.997Z,25.27
2019-05-01T14:21:18.887Z,25.26
2019-05-01T14:22:33.595Z,25.26
2019-05-01T14:23:45.240Z,25.24
2019-05-01T14:24:51.044Z,25.18
2019-05-01T14:26:06.188Z,25.16